ADDS METAR Data INFO
IDs: Format: Raw Decoded Include TAF

Data at: 1512 UTC 23 Oct 2017

K5H4 231455Z AUTO 30019G24KT 10SM BKN015 06/03 A3001 RMK AO2
K5H4 231435Z AUTO 30016KT 10SM -UP FEW013 FEW022 05/03 A3001 RMK AO2
K5H4 231415Z AUTO 30015KT 10SM FEW022 05/03 A3000 RMK AO2
K5H4 231355Z AUTO 31019KT 10SM -UP CLR 05/03 A2999 RMK AO2
K5H4 231335Z AUTO 31015KT 10SM SCT120 05/03 A2998 RMK AO2
K5H4 231315Z AUTO 31018KT 10SM BKN110 05/03 A2997 RMK AO2
K5H4 231255Z AUTO 31017G25KT 10SM -UP FEW018 SCT080 OVC110 05/03 A2996 RMK AO2
K5H4 231235Z AUTO 32018G27KT 10SM SCT019 BKN040 OVC075 06/03 A2995 RMK AO2
K5H4 231215Z AUTO 32021KT 10SM SCT023 BKN033 OVC065 06/03 A2993 RMK AO2
K5H4 231155Z AUTO 31022KT 10SM BKN023 OVC030 06/03 A2991 RMK AO2
K5H4 231135Z AUTO 31020G28KT 10SM -UP BKN023 BKN028 OVC048 06/03 A2990 RMK AO2
K5H4 231115Z AUTO 31020G26KT 10SM -UP SCT023 BKN039 OVC047 06/03 A2987 RMK AO2
K5H4 231055Z AUTO 30020KT 10SM BKN023 BKN028 OVC039 06/03 A2985 RMK AO2
K5H4 231035Z AUTO 30020G27KT 10SM -UP BKN023 OVC029 06/02 A2984 RMK AO2
K5H4 231015Z AUTO 30020G29KT 10SM BKN023 OVC033 06/02 A2983 RMK AO2
K5H4 230955Z AUTO 30020G29KT 10SM FEW023 OVC032 07/02 A2981 RMK AO2
K5H4 230935Z AUTO 31021G31KT 10SM BKN032 07/02 A2980 RMK AO2
K5H4 230915Z AUTO 30020G31KT 10SM CLR 07/02 A2978 RMK AO2
K5H4 230855Z AUTO 29020G30KT 10SM CLR 08/01 A2977 RMK AO2
K5H4 230835Z AUTO 30022G28KT 10SM CLR 08/01 A2975 RMK AO2
K5H4 230815Z AUTO 30018G26KT 10SM CLR 08/01 A2974 RMK AO2
K5H4 230755Z AUTO 30023G31KT 10SM SCT120 09/01 A2973 RMK AO2
K5H4 230735Z AUTO 30022G33KT 10SM SCT080 OVC110 10/02 A2972 RMK AO2
K5H4 230715Z AUTO 29019G25KT 10SM FEW080 SCT090 BKN110 10/02 A2971 RMK AO2
K5H4 230655Z AUTO 29018KT 10SM SCT110 10/02 A2970 RMK AO2
K5H4 230635Z AUTO 29013G19KT 10SM CLR 10/02 A2970 RMK AO2
K5H4 230615Z AUTO 29014G20KT 10SM SCT110 11/04 A2969 RMK AO2
K5H4 230555Z AUTO 28015G21KT 10SM FEW043 SCT080 BKN110 12/05 A2968 RMK AO2
K5H4 230535Z AUTO 29016KT 10SM FEW055 BKN075 BKN090 11/05 A2966 RMK AO2
K5H4 230515Z AUTO 27016KT 10SM FEW026 SCT055 BKN075 11/07 A2966 RMK AO2
K5H4 230455Z AUTO 27016KT 10SM SCT070 BKN080 OVC090 11/07 A2964 RMK AO2
K5H4 230435Z AUTO 26014G20KT 10SM FEW070 OVC100 11/07 A2964 RMK AO2
K5H4 230415Z AUTO 25012KT 10SM OVC110 11/08 A2963 RMK AO2
K5H4 230355Z AUTO 23012KT 10SM FEW075 OVC110 11/08 A2963 RMK AO2
K5H4 230335Z AUTO 24017G22KT 10SM SCT055 BKN075 OVC100 13/07 A2962 RMK AO2
K5H4 230315Z AUTO 23020G28KT 9SM BKN055 BKN065 OVC075 13/07 A2961 RMK AO2
K5H4 230255Z AUTO 25018G29KT 10SM FEW039 FEW060 OVC075 12/07 A2962 RMK AO2
K5H4 230235Z AUTO 25023G32KT 10SM BKN075 BKN110 12/03 A2961 RMK AO2
K5H4 230215Z AUTO 22011KT 10SM SCT080 11/03 A2960 RMK AO2
K5H4 230155Z AUTO 20010KT 10SM CLR 10/02 A2960 RMK AO2
K5H4 230135Z AUTO 19008KT 10SM FEW080 09/03 A2960 RMK AO2
K5H4 230115Z AUTO 18008KT 10SM CLR 09/03 A2961 RMK AO2
K5H4 230055Z AUTO 18007KT 10SM FEW110 09/03 A2962 RMK AO2
K5H4 230035Z AUTO 17010KT 10SM SCT120 09/03 A2962 RMK AO2
K5H4 230015Z AUTO 17006KT 10SM CLR 09/04 A2963 RMK AO2
K5H4 222355Z AUTO 18007KT 10SM FEW080 FEW100 10/05 A2963 RMK AO2
K5H4 222335Z AUTO 20006KT 10SM SCT065 BKN080 BKN100 10/06 A2964 RMK AO2
K5H4 222315Z AUTO 21007KT 10SM OVC060 11/07 A2965 RMK AO2
K5H4 222255Z AUTO 23008KT 10SM OVC060 12/06 A2965 RMK AO2
K5H4 222235Z AUTO 24011KT 10SM BKN055 BKN065 11/07 A2965 RMK AO2
K5H4 222215Z AUTO 23015KT 10SM FEW048 BKN055 BKN065 11/06 A2965 RMK AO2
K5H4 222155Z AUTO 23018G25KT 9SM FEW038 FEW044 BKN055 12/05 A2965 RMK AO2
K5H4 222135Z AUTO 23019G26KT 10SM SCT041 BKN060 OVC075 14/02 A2965 RMK AO2
K5H4 222115Z AUTO 23015KT 10SM SCT060 BKN070 14/01 A2965 RMK AO2
K5H4 222055Z AUTO 23017G23KT 10SM SCT055 13/03 A2966 RMK AO2
K5H4 222035Z AUTO 22014KT 10SM BKN055 12/03 A2967 RMK AO2
K5H4 222015Z AUTO 21013KT 10SM BKN055 13/M00 A2968 RMK AO2
K5H4 221955Z AUTO 22014KT 10SM FEW027 FEW042 SCT060 13/M01 A2969 RMK AO2
K5H4 221935Z AUTO 20015KT 10SM FEW025 FEW030 FEW044 13/M02 A2970 RMK AO2
K5H4 221915Z AUTO 21019G26KT 10SM CLR 12/M03 A2971 RMK AO2
K5H4 221855Z AUTO 20013KT 10SM CLR 12/M02 A2972 RMK AO2
K5H4 221835Z AUTO 21016G23KT 10SM CLR 13/M03 A2974 RMK AO2
K5H4 221815Z AUTO 21013KT 10SM CLR 12/M03 A2974 RMK AO2
K5H4 221755Z AUTO 21013G19KT 10SM CLR 12/M03 A2975 RMK AO2
K5H4 221735Z AUTO 22013G19KT 10SM CLR 12/M04 A2976 RMK AO2
K5H4 221715Z AUTO 21015G20KT 10SM CLR 12/M02 A2976 RMK AO2
K5H4 221655Z AUTO 21014G21KT 10SM CLR 12/M02 A2976 RMK AO2
K5H4 221635Z AUTO 21016KT 10SM CLR 13/M03 A2977 RMK AO2
K5H4 221615Z AUTO 23014KT 10SM CLR 12/M02 A2979 RMK AO2
K5H4 221555Z AUTO 22013KT 10SM CLR 10/M02 A2980 RMK AO2
K5H4 221535Z AUTO 23014KT 10SM CLR 09/M02 A2980 RMK AO2
K5H4 221515Z AUTO 22013KT 10SM CLR 07/M01 A2981 RMK AO2
K5H4 221455Z AUTO 23012KT 10SM CLR 06/M01 A2981 RMK AO2
K5H4 221435Z AUTO 23009KT 10SM CLR 05/M01 A2982 RMK AO2
K5H4 221415Z AUTO 23011KT 10SM CLR 03/M01 A2982 RMK AO2
K5H4 221355Z AUTO 23011KT 10SM CLR 02/M01 A2981 RMK AO2
K5H4 221335Z AUTO 22009KT 10SM CLR 01/M02 A2982 RMK AO2
K5H4 221315Z AUTO 23012KT 10SM CLR 00/M02 A2982 RMK AO2
K5H4 221255Z AUTO 23009KT 10SM CLR 01/M02 A2982 RMK AO2
K5H4 221235Z AUTO 23010KT 10SM CLR 01/M01 A2981 RMK AO2
K5H4 221215Z AUTO 24011KT 10SM CLR 01/M01 A2981 RMK AO2
K5H4 221155Z AUTO 23011KT 10SM CLR 00/M01 A2981 RMK AO2
K5H4 221135Z AUTO 23010KT 10SM CLR 00/M01 A2981 RMK AO2
K5H4 221115Z AUTO 22010KT 10SM CLR 00/M01 A2981 RMK AO2
K5H4 221055Z AUTO 23009KT 10SM CLR 00/M01 A2981 RMK AO2
K5H4 221035Z AUTO 23009KT 10SM CLR 01/M01 A2981 RMK AO2
K5H4 221015Z AUTO 25013KT 10SM CLR 02/M00 A2980 RMK AO2
K5H4 220955Z AUTO 24012KT 10SM CLR 02/M00 A2980 RMK AO2
K5H4 220935Z AUTO 24012KT 10SM CLR 03/00 A2980 RMK AO2
K5H4 220915Z AUTO 25010KT 10SM CLR 03/00 A2980 RMK AO2
K5H4 220855Z AUTO 25010KT 10SM CLR 03/01 A2980 RMK AO2
K5H4 220835Z AUTO 25011KT 10SM CLR 03/01 A2980 RMK AO2
K5H4 220815Z AUTO 25012KT 10SM CLR 04/01 A2979 RMK AO2
K5H4 220755Z AUTO 25011KT 10SM CLR 04/01 A2979 RMK AO2
K5H4 220735Z AUTO 25013KT 10SM CLR 04/01 A2978 RMK AO2
K5H4 220715Z AUTO 25010KT 10SM CLR 04/01 A2978 RMK AO2
K5H4 220655Z AUTO 26011KT 10SM CLR 05/01 A2977 RMK AO2
K5H4 220635Z AUTO 25012KT 10SM CLR 05/01 A2977 RMK AO2
K5H4 220615Z AUTO 25012KT 10SM CLR 05/01 A2976 RMK AO2
K5H4 220555Z AUTO 26013KT 10SM CLR 06/01 A2975 RMK AO2
K5H4 220535Z AUTO 27014G19KT 10SM CLR 07/01 A2974 RMK AO2
K5H4 220515Z AUTO 27014G20KT 10SM CLR 07/02 A2973 RMK AO2
K5H4 220455Z AUTO 26014KT 10SM FEW070 06/03 A2973 RMK AO2
K5H4 220435Z AUTO 25011KT 10SM SCT050 BKN070 06/03 A2973 RMK AO2
K5H4 220415Z AUTO 25010KT 10SM BKN050 OVC070 07/03 A2973 RMK AO2
K5H4 220355Z AUTO 27010KT 10SM BKN049 BKN065 07/03 A2973 RMK AO2
K5H4 220335Z AUTO 28013G19KT 10SM SCT044 BKN100 07/03 A2974 RMK AO2
K5H4 220315Z AUTO 28015G21KT 10SM FEW035 SCT041 BKN055 08/04 A2974 RMK AO2